sensor_id;sensor_type;location;lat;lon;timestamp;P1;durP1;ratioP1;P2;durP2;ratioP2
58966;SDS011;44744;51.894;5.080;2022-09-23T00:00:46;7.70;;;6.50;;
58966;SDS011;44744;51.894;5.080;2022-09-23T00:01:47;9.00;;;6.60;;
58966;SDS011;44744;51.894;5.080;2022-09-23T00:02:47;10.40;;;7.60;;
58966;SDS011;44744;51.894;5.080;2022-09-23T00:03:48;9.50;;;6.80;;
58966;SDS011;44744;51.894;5.080;2022-09-23T00:04:48;12.50;;;7.20;;
58966;SDS011;44744;51.894;5.080;2022-09-23T00:05:56;8.80;;;6.80;;
58966;SDS011;44744;51.894;5.080;2022-09-23T00:06:57;10.90;;;6.70;;
58966;SDS011;44744;51.894;5.080;2022-09-23T00:07:58;11.20;;;6.70;;
58966;SDS011;44744;51.894;5.080;2022-09-23T00:09:00;10.00;;;6.70;;
58966;SDS011;44744;51.894;5.080;2022-09-23T00:10:00;9.60;;;6.50;;
58966;SDS011;44744;51.894;5.080;2022-09-23T00:11:14;10.80;;;7.40;;
58966;SDS011;44744;51.894;5.080;2022-09-23T00:12:16;9.70;;;6.90;;
58966;SDS011;44744;51.894;5.080;2022-09-23T00:13:17;13.50;;;7.00;;
58966;SDS011;44744;51.894;5.080;2022-09-23T00:14:17;10.50;;;6.80;;
58966;SDS011;44744;51.894;5.080;2022-09-23T00:15:17;11.40;;;6.90;;
58966;SDS011;44744;51.894;5.080;2022-09-23T00:16:19;9.20;;;7.30;;
58966;SDS011;44744;51.894;5.080;2022-09-23T00:17:22;10.70;;;7.40;;
58966;SDS011;44744;51.894;5.080;2022-09-23T00:18:22;8.10;;;6.40;;
58966;SDS011;44744;51.894;5.080;2022-09-23T00:19:22;9.20;;;7.00;;
58966;SDS011;44744;51.894;5.080;2022-09-23T00:20:23;9.10;;;6.80;;
58966;SDS011;44744;51.894;5.080;2022-09-23T00:21:23;10.10;;;6.80;;
58966;SDS011;44744;51.894;5.080;2022-09-23T00:22:24;11.40;;;7.20;;
58966;SDS011;44744;51.894;5.080;2022-09-23T00:23:24;12.00;;;7.30;;
58966;SDS011;44744;51.894;5.080;2022-09-23T00:24:24;12.50;;;7.80;;
58966;SDS011;44744;51.894;5.080;2022-09-23T00:25:25;11.90;;;8.00;;
58966;SDS011;44744;51.894;5.080;2022-09-23T00:26:25;10.20;;;7.10;;
58966;SDS011;44744;51.894;5.080;2022-09-23T00:27:25;11.80;;;7.10;;
58966;SDS011;44744;51.894;5.080;2022-09-23T00:28:25;10.00;;;7.10;;
58966;SDS011;44744;51.894;5.080;2022-09-23T00:29:26;11.10;;;7.10;;
58966;SDS011;44744;51.894;5.080;2022-09-23T00:30:26;18.10;;;7.40;;
58966;SDS011;44744;51.894;5.080;2022-09-23T00:31:27;12.00;;;7.40;;
58966;SDS011;44744;51.894;5.080;2022-09-23T00:32:28;9.60;;;6.90;;
58966;SDS011;44744;51.894;5.080;2022-09-23T00:33:28;9.90;;;6.40;;
58966;SDS011;44744;51.894;5.080;2022-09-23T00:34:28;13.90;;;7.20;;
58966;SDS011;44744;51.894;5.080;2022-09-23T00:35:28;11.00;;;7.50;;
58966;SDS011;44744;51.894;5.080;2022-09-23T00:36:29;10.70;;;7.20;;
58966;SDS011;44744;51.894;5.080;2022-09-23T00:37:30;9.90;;;7.40;;
58966;SDS011;44744;51.894;5.080;2022-09-23T00:38:30;10.50;;;7.70;;
58966;SDS011;44744;51.894;5.080;2022-09-23T00:39:31;10.20;;;7.10;;
58966;SDS011;44744;51.894;5.080;2022-09-23T00:40:31;8.80;;;7.30;;
58966;SDS011;44744;51.894;5.080;2022-09-23T00:41:31;8.80;;;6.70;;
58966;SDS011;44744;51.894;5.080;2022-09-23T00:42:32;8.80;;;7.40;;
58966;SDS011;44744;51.894;5.080;2022-09-23T00:43:41;8.30;;;7.40;;
58966;SDS011;44744;51.894;5.080;2022-09-23T00:45:49;8.10;;;7.30;;
58966;SDS011;44744;51.894;5.080;2022-09-23T00:46:50;12.90;;;7.60;;
58966;SDS011;44744;51.894;5.080;2022-09-23T00:47:58;8.90;;;6.60;;
58966;SDS011;44744;51.894;5.080;2022-09-23T00:52:31;10.10;;;7.40;;
58966;SDS011;44744;51.894;5.080;2022-09-23T00:53:32;9.70;;;7.60;;
58966;SDS011;44744;51.894;5.080;2022-09-23T00:54:32;10.00;;;7.20;;
58966;SDS011;44744;51.894;5.080;2022-09-23T00:55:40;10.70;;;7.10;;
58966;SDS011;44744;51.894;5.080;2022-09-23T00:56:44;10.80;;;7.60;;
58966;SDS011;44744;51.894;5.080;2022-09-23T00:57:45;10.80;;;7.20;;
58966;SDS011;44744;51.894;5.080;2022-09-23T00:58:46;8.60;;;6.70;;
58966;SDS011;44744;51.894;5.080;2022-09-23T00:59:51;9.40;;;7.10;;
58966;SDS011;44744;51.894;5.080;2022-09-23T01:00:52;11.60;;;6.70;;
58966;SDS011;44744;51.894;5.080;2022-09-23T01:01:58;11.70;;;7.50;;
58966;SDS011;44744;51.894;5.080;2022-09-23T01:03:02;8.80;;;6.80;;
58966;SDS011;44744;51.894;5.080;2022-09-23T01:04:05;7.70;;;6.40;;
58966;SDS011;44744;51.894;5.080;2022-09-23T01:05:06;10.30;;;7.20;;
58966;SDS011;44744;51.894;5.080;2022-09-23T01:06:07;9.60;;;6.80;;
58966;SDS011;44744;51.894;5.080;2022-09-23T01:07:07;9.40;;;6.90;;
58966;SDS011;44744;51.894;5.080;2022-09-23T01:08:09;9.10;;;7.00;;
58966;SDS011;44744;51.894;5.080;2022-09-23T01:09:12;9.60;;;6.80;;
58966;SDS011;44744;51.894;5.080;2022-09-23T01:10:13;9.90;;;7.50;;
58966;SDS011;44744;51.894;5.080;2022-09-23T01:11:27;9.70;;;7.20;;
58966;SDS011;44744;51.894;5.080;2022-09-23T01:17:32;10.50;;;7.00;;
58966;SDS011;44744;51.894;5.080;2022-09-23T01:18:42;12.20;;;7.40;;
58966;SDS011;44744;51.894;5.080;2022-09-23T01:21:19;11.70;;;7.70;;
58966;SDS011;44744;51.894;5.080;2022-09-23T01:22:48;9.60;;;7.70;;
58966;SDS011;44744;51.894;5.080;2022-09-23T01:31:07;10.50;;;7.20;;
58966;SDS011;44744;51.894;5.080;2022-09-23T01:32:14;10.00;;;7.20;;
58966;SDS011;44744;51.894;5.080;2022-09-23T01:34:46;8.60;;;7.40;;
58966;SDS011;44744;51.894;5.080;2022-09-23T01:36:00;11.10;;;7.70;;
58966;SDS011;44744;51.894;5.080;2022-09-23T01:37:23;10.30;;;7.50;;
58966;SDS011;44744;51.894;5.080;2022-09-23T01:39:43;9.30;;;7.60;;
58966;SDS011;44744;51.894;5.080;2022-09-23T01:41:21;10.30;;;8.20;;
58966;SDS011;44744;51.894;5.080;2022-09-23T01:42:32;11.60;;;7.80;;
58966;SDS011;44744;51.894;5.080;2022-09-23T01:43:45;11.30;;;6.90;;
58966;SDS011;44744;51.894;5.080;2022-09-23T01:45:01;10.30;;;7.40;;
58966;SDS011;44744;51.894;5.080;2022-09-23T01:46:13;10.80;;;8.10;;
58966;SDS011;44744;51.894;5.080;2022-09-23T01:47:22;9.70;;;8.20;;
58966;SDS011;44744;51.894;5.080;2022-09-23T01:48:34;9.40;;;8.00;;
58966;SDS011;44744;51.894;5.080;2022-09-23T01:49:55;14.30;;;8.40;;
58966;SDS011;44744;51.894;5.080;2022-09-23T01:53:38;10.00;;;8.30;;
58966;SDS011;44744;51.894;5.080;2022-09-23T01:54:46;12.50;;;8.70;;
58966;SDS011;44744;51.894;5.080;2022-09-23T01:55:52;11.90;;;8.60;;
58966;SDS011;44744;51.894;5.080;2022-09-23T01:57:20;11.10;;;8.70;;
58966;SDS011;44744;51.894;5.080;2022-09-23T01:58:30;8.70;;;7.50;;
58966;SDS011;44744;51.894;5.080;2022-09-23T01:59:39;13.80;;;8.50;;
58966;SDS011;44744;51.894;5.080;2022-09-23T02:00:58;10.60;;;8.10;;
58966;SDS011;44744;51.894;5.080;2022-09-23T02:02:03;10.20;;;8.10;;
58966;SDS011;44744;51.894;5.080;2022-09-23T02:03:14;11.50;;;8.60;;
58966;SDS011;44744;51.894;5.080;2022-09-23T02:04:31;10.00;;;7.80;;
58966;SDS011;44744;51.894;5.080;2022-09-23T02:05:37;10.80;;;8.00;;
58966;SDS011;44744;51.894;5.080;2022-09-23T02:06:43;11.60;;;8.70;;
58966;SDS011;44744;51.894;5.080;2022-09-23T02:07:54;9.90;;;8.00;;
58966;SDS011;44744;51.894;5.080;2022-09-23T02:09:03;11.60;;;8.70;;
58966;SDS011;44744;51.894;5.080;2022-09-23T02:10:12;12.00;;;8.00;;
58966;SDS011;44744;51.894;5.080;2022-09-23T02:11:19;10.30;;;8.10;;
58966;SDS011;44744;51.894;5.080;2022-09-23T02:12:20;11.00;;;8.40;;
58966;SDS011;44744;51.894;5.080;2022-09-23T02:13:33;10.40;;;8.80;;
58966;SDS011;44744;51.894;5.080;2022-09-23T02:14:46;11.30;;;8.10;;
58966;SDS011;44744;51.894;5.080;2022-09-23T02:15:51;12.00;;;8.70;;
58966;SDS011;44744;51.894;5.080;2022-09-23T02:16:57;11.00;;;7.70;;
58966;SDS011;44744;51.894;5.080;2022-09-23T02:18:04;10.70;;;7.90;;
58966;SDS011;44744;51.894;5.080;2022-09-23T02:20:25;11.50;;;8.80;;
58966;SDS011;44744;51.894;5.080;2022-09-23T02:21:31;11.50;;;8.70;;
58966;SDS011;44744;51.894;5.080;2022-09-23T02:24:11;13.00;;;8.20;;
58966;SDS011;44744;51.894;5.080;2022-09-23T02:25:30;11.80;;;8.50;;
58966;SDS011;44744;51.894;5.080;2022-09-23T02:26:46;12.40;;;8.70;;
58966;SDS011;44744;51.894;5.080;2022-09-23T02:29:08;10.20;;;8.60;;
58966;SDS011;44744;51.894;5.080;2022-09-23T02:32:22;11.00;;;8.70;;
58966;SDS011;44744;51.894;5.080;2022-09-23T02:33:29;11.80;;;8.20;;
58966;SDS011;44744;51.894;5.080;2022-09-23T02:39:36;11.80;;;8.70;;
58966;SDS011;44744;51.894;5.080;2022-09-23T02:40:54;14.30;;;8.70;;
58966;SDS011;44744;51.894;5.080;2022-09-23T02:42:01;11.90;;;8.50;;
58966;SDS011;44744;51.894;5.080;2022-09-23T02:44:26;12.90;;;8.90;;
58966;SDS011;44744;51.894;5.080;2022-09-23T02:45:27;9.70;;;8.30;;
58966;SDS011;44744;51.894;5.080;2022-09-23T02:46:27;11.10;;;8.60;;
58966;SDS011;44744;51.894;5.080;2022-09-23T02:47:29;14.30;;;8.60;;
58966;SDS011;44744;51.894;5.080;2022-09-23T02:48:35;12.60;;;8.60;;
58966;SDS011;44744;51.894;5.080;2022-09-23T02:49:45;12.90;;;9.20;;
58966;SDS011;44744;51.894;5.080;2022-09-23T02:50:45;13.90;;;9.80;;
58966;SDS011;44744;51.894;5.080;2022-09-23T02:51:48;11.10;;;8.50;;
58966;SDS011;44744;51.894;5.080;2022-09-23T02:52:49;10.90;;;8.50;;
58966;SDS011;44744;51.894;5.080;2022-09-23T02:53:50;14.10;;;8.90;;
58966;SDS011;44744;51.894;5.080;2022-09-23T02:54:52;12.50;;;9.10;;
58966;SDS011;44744;51.894;5.080;2022-09-23T02:55:53;11.90;;;8.80;;
58966;SDS011;44744;51.894;5.080;2022-09-23T02:56:53;14.20;;;8.50;;
58966;SDS011;44744;51.894;5.080;2022-09-23T02:57:54;13.50;;;9.40;;
58966;SDS011;44744;51.894;5.080;2022-09-23T02:58:54;13.50;;;8.80;;
58966;SDS011;44744;51.894;5.080;2022-09-23T02:59:55;12.50;;;9.30;;
58966;SDS011;44744;51.894;5.080;2022-09-23T03:01:21;11.90;;;9.20;;
58966;SDS011;44744;51.894;5.080;2022-09-23T03:05:44;9.80;;;7.60;;
58966;SDS011;44744;51.894;5.080;2022-09-23T03:08:47;10.80;;;7.90;;
58966;SDS011;44744;51.894;5.080;2022-09-23T03:11:17;14.20;;;8.70;;
58966;SDS011;44744;51.894;5.080;2022-09-23T03:12:24;11.80;;;8.60;;
58966;SDS011;44744;51.894;5.080;2022-09-23T03:13:41;10.90;;;8.40;;
58966;SDS011;44744;51.894;5.080;2022-09-23T03:15:36;12.70;;;7.30;;
58966;SDS011;44744;51.894;5.080;2022-09-23T03:17:01;12.30;;;8.40;;
58966;SDS011;44744;51.894;5.080;2022-09-23T03:18:23;10.80;;;7.70;;
58966;SDS011;44744;51.894;5.080;2022-09-23T03:19:48;12.70;;;8.70;;
58966;SDS011;44744;51.894;5.080;2022-09-23T03:20:57;9.60;;;7.90;;
58966;SDS011;44744;51.894;5.080;2022-09-23T03:22:05;12.30;;;8.40;;
58966;SDS011;44744;51.894;5.080;2022-09-23T03:23:12;12.90;;;9.10;;
58966;SDS011;44744;51.894;5.080;2022-09-23T03:24:14;13.80;;;7.90;;
58966;SDS011;44744;51.894;5.080;2022-09-23T03:25:18;11.90;;;8.80;;
58966;SDS011;44744;51.894;5.080;2022-09-23T03:26:23;11.00;;;8.20;;
58966;SDS011;44744;51.894;5.080;2022-09-23T03:27:28;12.90;;;9.00;;
58966;SDS011;44744;51.894;5.080;2022-09-23T03:28:36;10.80;;;8.00;;
58966;SDS011;44744;51.894;5.080;2022-09-23T03:29:43;10.20;;;7.80;;
58966;SDS011;44744;51.894;5.080;2022-09-23T03:30:47;10.10;;;8.00;;
58966;SDS011;44744;51.894;5.080;2022-09-23T03:31:49;11.60;;;8.20;;
58966;SDS011;44744;51.894;5.080;2022-09-23T03:32:49;12.60;;;9.00;;
58966;SDS011;44744;51.894;5.080;2022-09-23T03:33:51;12.10;;;8.20;;
58966;SDS011;44744;51.894;5.080;2022-09-23T03:35:00;13.60;;;8.20;;
58966;SDS011;44744;51.894;5.080;2022-09-23T03:36:05;11.20;;;8.30;;
58966;SDS011;44744;51.894;5.080;2022-09-23T03:38:25;9.80;;;7.60;;
58966;SDS011;44744;51.894;5.080;2022-09-23T03:39:37;10.80;;;8.60;;
58966;SDS011;44744;51.894;5.080;2022-09-23T03:40:40;12.50;;;8.50;;
58966;SDS011;44744;51.894;5.080;2022-09-23T03:41:44;10.10;;;8.20;;
58966;SDS011;44744;51.894;5.080;2022-09-23T03:42:49;18.30;;;8.30;;
58966;SDS011;44744;51.894;5.080;2022-09-23T03:43:50;13.60;;;8.70;;
58966;SDS011;44744;51.894;5.080;2022-09-23T03:44:51;9.10;;;7.50;;
58966;SDS011;44744;51.894;5.080;2022-09-23T03:45:53;12.60;;;8.40;;
58966;SDS011;44744;51.894;5.080;2022-09-23T03:46:57;10.90;;;8.30;;
58966;SDS011;44744;51.894;5.080;2022-09-23T03:47:58;14.30;;;9.40;;
58966;SDS011;44744;51.894;5.080;2022-09-23T03:49:01;15.70;;;9.30;;
58966;SDS011;44744;51.894;5.080;2022-09-23T03:50:08;10.40;;;8.50;;
58966;SDS011;44744;51.894;5.080;2022-09-23T03:51:22;10.20;;;7.90;;
58966;SDS011;44744;51.894;5.080;2022-09-23T03:52:23;11.00;;;8.30;;
58966;SDS011;44744;51.894;5.080;2022-09-23T03:54:24;12.60;;;7.70;;
58966;SDS011;44744;51.894;5.080;2022-09-23T03:55:25;11.60;;;8.00;;
58966;SDS011;44744;51.894;5.080;2022-09-23T03:56:25;11.90;;;9.00;;
58966;SDS011;44744;51.894;5.080;2022-09-23T03:57:25;11.80;;;8.90;;
58966;SDS011;44744;51.894;5.080;2022-09-23T03:58:26;11.50;;;8.10;;
58966;SDS011;44744;51.894;5.080;2022-09-23T03:59:26;12.40;;;8.40;;
58966;SDS011;44744;51.894;5.080;2022-09-23T04:00:26;10.60;;;8.60;;
58966;SDS011;44744;51.894;5.080;2022-09-23T04:01:26;11.80;;;8.60;;
58966;SDS011;44744;51.894;5.080;2022-09-23T04:02:27;11.30;;;8.70;;
58966;SDS011;44744;51.894;5.080;2022-09-23T04:03:27;13.90;;;9.30;;
58966;SDS011;44744;51.894;5.080;2022-09-23T04:04:28;13.70;;;8.60;;
58966;SDS011;44744;51.894;5.080;2022-09-23T04:05:28;11.00;;;8.60;;
58966;SDS011;44744;51.894;5.080;2022-09-23T04:06:29;10.30;;;8.60;;
58966;SDS011;44744;51.894;5.080;2022-09-23T04:07:29;11.10;;;8.30;;
58966;SDS011;44744;51.894;5.080;2022-09-23T04:08:29;11.00;;;8.40;;
58966;SDS011;44744;51.894;5.080;2022-09-23T04:09:30;9.70;;;7.80;;
58966;SDS011;44744;51.894;5.080;2022-09-23T04:10:30;12.50;;;8.40;;
58966;SDS011;44744;51.894;5.080;2022-09-23T04:11:30;11.90;;;8.40;;
58966;SDS011;44744;51.894;5.080;2022-09-23T04:12:31;12.80;;;8.50;;
58966;SDS011;44744;51.894;5.080;2022-09-23T04:13:31;9.50;;;7.60;;
58966;SDS011;44744;51.894;5.080;2022-09-23T04:14:31;12.30;;;8.20;;
58966;SDS011;44744;51.894;5.080;2022-09-23T04:15:32;13.30;;;8.50;;
58966;SDS011;44744;51.894;5.080;2022-09-23T04:16:32;10.80;;;8.90;;
58966;SDS011;44744;51.894;5.080;2022-09-23T04:17:32;12.40;;;8.40;;
58966;SDS011;44744;51.894;5.080;2022-09-23T04:18:33;12.10;;;8.90;;
58966;SDS011;44744;51.894;5.080;2022-09-23T04:19:33;11.90;;;8.50;;
58966;SDS011;44744;51.894;5.080;2022-09-23T04:20:34;10.30;;;8.10;;
58966;SDS011;44744;51.894;5.080;2022-09-23T04:21:38;11.40;;;8.10;;
58966;SDS011;44744;51.894;5.080;2022-09-23T04:22:39;10.50;;;8.00;;
58966;SDS011;44744;51.894;5.080;2022-09-23T04:23:39;11.30;;;8.10;;
58966;SDS011;44744;51.894;5.080;2022-09-23T04:24:39;11.40;;;8.70;;
58966;SDS011;44744;51.894;5.080;2022-09-23T04:25:46;12.70;;;8.50;;
58966;SDS011;44744;51.894;5.080;2022-09-23T04:26:51;11.40;;;8.70;;
58966;SDS011;44744;51.894;5.080;2022-09-23T04:27:52;12.90;;;8.20;;
58966;SDS011;44744;51.894;5.080;2022-09-23T04:28:53;9.70;;;7.60;;
58966;SDS011;44744;51.894;5.080;2022-09-23T04:29:54;12.30;;;8.20;;
58966;SDS011;44744;51.894;5.080;2022-09-23T04:30:54;10.80;;;8.40;;
58966;SDS011;44744;51.894;5.080;2022-09-23T04:31:54;9.50;;;7.70;;
58966;SDS011;44744;51.894;5.080;2022-09-23T04:32:55;10.20;;;8.20;;
58966;SDS011;44744;51.894;5.080;2022-09-23T04:33:55;13.40;;;8.50;;
58966;SDS011;44744;51.894;5.080;2022-09-23T04:34:56;10.10;;;7.30;;
58966;SDS011;44744;51.894;5.080;2022-09-23T04:35:56;12.50;;;8.20;;
58966;SDS011;44744;51.894;5.080;2022-09-23T04:36:56;11.20;;;7.90;;
58966;SDS011;44744;51.894;5.080;2022-09-23T04:37:57;10.50;;;7.90;;
58966;SDS011;44744;51.894;5.080;2022-09-23T04:38:57;13.50;;;8.90;;
58966;SDS011;44744;51.894;5.080;2022-09-23T04:39:57;9.50;;;7.50;;
58966;SDS011;44744;51.894;5.080;2022-09-23T04:40:57;12.70;;;8.30;;
58966;SDS011;44744;51.894;5.080;2022-09-23T04:41:58;11.40;;;7.80;;
58966;SDS011;44744;51.894;5.080;2022-09-23T04:42:58;11.90;;;8.10;;
58966;SDS011;44744;51.894;5.080;2022-09-23T04:43:58;11.40;;;8.10;;
58966;SDS011;44744;51.894;5.080;2022-09-23T04:44:59;11.00;;;8.40;;
58966;SDS011;44744;51.894;5.080;2022-09-23T04:46:00;12.30;;;8.10;;
58966;SDS011;44744;51.894;5.080;2022-09-23T04:47:01;12.80;;;8.60;;
58966;SDS011;44744;51.894;5.080;2022-09-23T04:48:02;11.20;;;8.60;;
58966;SDS011;44744;51.894;5.080;2022-09-23T04:49:03;14.70;;;8.60;;
58966;SDS011;44744;51.894;5.080;2022-09-23T04:50:04;12.40;;;8.40;;
58966;SDS011;44744;51.894;5.080;2022-09-23T04:51:07;11.50;;;8.30;;
58966;SDS011;44744;51.894;5.080;2022-09-23T04:52:17;12.90;;;8.40;;
58966;SDS011;44744;51.894;5.080;2022-09-23T04:53:17;11.30;;;7.90;;
58966;SDS011;44744;51.894;5.080;2022-09-23T04:54:18;15.00;;;8.60;;
58966;SDS011;44744;51.894;5.080;2022-09-23T04:55:18;13.00;;;9.80;;
58966;SDS011;44744;51.894;5.080;2022-09-23T04:56:24;10.30;;;8.10;;
58966;SDS011;44744;51.894;5.080;2022-09-23T04:57:26;10.90;;;8.20;;
58966;SDS011;44744;51.894;5.080;2022-09-23T04:58:26;11.00;;;8.60;;
58966;SDS011;44744;51.894;5.080;2022-09-23T04:59:26;9.80;;;8.10;;
58966;SDS011;44744;51.894;5.080;2022-09-23T05:00:27;11.70;;;8.30;;
58966;SDS011;44744;51.894;5.080;2022-09-23T05:01:28;13.70;;;8.90;;
58966;SDS011;44744;51.894;5.080;2022-09-23T05:02:30;11.80;;;8.40;;
58966;SDS011;44744;51.894;5.080;2022-09-23T05:03:31;11.70;;;8.20;;
58966;SDS011;44744;51.894;5.080;2022-09-23T05:04:31;12.50;;;7.80;;
58966;SDS011;44744;51.894;5.080;2022-09-23T05:05:31;13.70;;;9.30;;
58966;SDS011;44744;51.894;5.080;2022-09-23T05:06:32;10.20;;;7.80;;
58966;SDS011;44744;51.894;5.080;2022-09-23T05:07:34;11.90;;;7.90;;
58966;SDS011;44744;51.894;5.080;2022-09-23T05:08:34;9.20;;;7.60;;
58966;SDS011;44744;51.894;5.080;2022-09-23T05:09:34;10.60;;;8.10;;
58966;SDS011;44744;51.894;5.080;2022-09-23T05:10:35;12.60;;;8.20;;
58966;SDS011;44744;51.894;5.080;2022-09-23T05:11:35;10.50;;;8.10;;
58966;SDS011;44744;51.894;5.080;2022-09-23T05:12:35;10.80;;;8.60;;
58966;SDS011;44744;51.894;5.080;2022-09-23T05:13:36;10.80;;;8.30;;
58966;SDS011;44744;51.894;5.080;2022-09-23T05:14:36;10.50;;;7.90;;
58966;SDS011;44744;51.894;5.080;2022-09-23T05:15:36;10.70;;;7.80;;
58966;SDS011;44744;51.894;5.080;2022-09-23T05:16:37;10.80;;;8.00;;
58966;SDS011;44744;51.894;5.080;2022-09-23T05:17:37;11.60;;;7.90;;
58966;SDS011;44744;51.894;5.080;2022-09-23T05:18:38;9.50;;;7.20;;
58966;SDS011;44744;51.894;5.080;2022-09-23T05:19:40;11.40;;;8.40;;
58966;SDS011;44744;51.894;5.080;2022-09-23T05:20:40;12.00;;;7.90;;
58966;SDS011;44744;51.894;5.080;2022-09-23T05:21:40;9.20;;;7.80;;
58966;SDS011;44744;51.894;5.080;2022-09-23T05:22:48;15.60;;;8.00;;
58966;SDS011;44744;51.894;5.080;2022-09-23T05:23:49;10.00;;;7.70;;
58966;SDS011;44744;51.894;5.080;2022-09-23T05:24:52;11.50;;;8.10;;
58966;SDS011;44744;51.894;5.080;2022-09-23T05:25:56;11.20;;;8.00;;
58966;SDS011;44744;51.894;5.080;2022-09-23T05:26:58;9.80;;;8.00;;
58966;SDS011;44744;51.894;5.080;2022-09-23T05:27:58;11.20;;;8.60;;
58966;SDS011;44744;51.894;5.080;2022-09-23T05:28:58;11.40;;;8.20;;
58966;SDS011;44744;51.894;5.080;2022-09-23T05:29:59;9.60;;;7.60;;
58966;SDS011;44744;51.894;5.080;2022-09-23T05:31:03;13.60;;;8.10;;
58966;SDS011;44744;51.894;5.080;2022-09-23T05:32:11;10.70;;;6.80;;
58966;SDS011;44744;51.894;5.080;2022-09-23T05:33:11;12.40;;;8.00;;
58966;SDS011;44744;51.894;5.080;2022-09-23T05:34:12;11.30;;;8.20;;
58966;SDS011;44744;51.894;5.080;2022-09-23T05:35:12;9.30;;;7.90;;
58966;SDS011;44744;51.894;5.080;2022-09-23T05:36:13;14.80;;;7.80;;
58966;SDS011;44744;51.894;5.080;2022-09-23T05:37:17;10.20;;;7.60;;
58966;SDS011;44744;51.894;5.080;2022-09-23T05:38:17;9.30;;;7.30;;
58966;SDS011;44744;51.894;5.080;2022-09-23T05:39:18;10.70;;;7.40;;
58966;SDS011;44744;51.894;5.080;2022-09-23T05:40:18;12.30;;;7.80;;
58966;SDS011;44744;51.894;5.080;2022-09-23T05:41:20;14.30;;;8.70;;
58966;SDS011;44744;51.894;5.080;2022-09-23T05:42:21;12.10;;;8.10;;
58966;SDS011;44744;51.894;5.080;2022-09-23T05:43:21;11.40;;;7.90;;
58966;SDS011;44744;51.894;5.080;2022-09-23T05:44:21;14.20;;;8.10;;
58966;SDS011;44744;51.894;5.080;2022-09-23T05:45:22;13.40;;;7.80;;
58966;SDS011;44744;51.894;5.080;2022-09-23T05:46:23;9.30;;;7.10;;
58966;SDS011;44744;51.894;5.080;2022-09-23T05:47:28;11.10;;;8.00;;
58966;SDS011;44744;51.894;5.080;2022-09-23T05:48:29;10.20;;;7.80;;
58966;SDS011;44744;51.894;5.080;2022-09-23T05:49:30;10.50;;;7.40;;
58966;SDS011;44744;51.894;5.080;2022-09-23T05:50:31;9.20;;;7.00;;
58966;SDS011;44744;51.894;5.080;2022-09-23T05:51:32;14.50;;;7.80;;
58966;SDS011;44744;51.894;5.080;2022-09-23T05:52:33;12.60;;;7.20;;
58966;SDS011;44744;51.894;5.080;2022-09-23T05:53:33;11.80;;;7.80;;
58966;SDS011;44744;51.894;5.080;2022-09-23T05:54:34;9.60;;;7.50;;
58966;SDS011;44744;51.894;5.080;2022-09-23T05:55:35;11.90;;;7.20;;
58966;SDS011;44744;51.894;5.080;2022-09-23T05:56:35;9.40;;;6.90;;
58966;SDS011;44744;51.894;5.080;2022-09-23T05:57:36;11.10;;;7.70;;
58966;SDS011;44744;51.894;5.080;2022-09-23T05:58:36;12.50;;;8.30;;
58966;SDS011;44744;51.894;5.080;2022-09-23T05:59:36;14.50;;;9.10;;
58966;SDS011;44744;51.894;5.080;2022-09-23T06:00:40;11.00;;;8.10;;
58966;SDS011;44744;51.894;5.080;2022-09-23T06:01:42;14.70;;;8.10;;
58966;SDS011;44744;51.894;5.080;2022-09-23T06:02:42;9.90;;;7.60;;
58966;SDS011;44744;51.894;5.080;2022-09-23T06:03:46;13.20;;;8.20;;
58966;SDS011;44744;51.894;5.080;2022-09-23T06:04:47;15.00;;;8.10;;
58966;SDS011;44744;51.894;5.080;2022-09-23T06:05:51;12.10;;;8.20;;
58966;SDS011;44744;51.894;5.080;2022-09-23T06:06:52;14.90;;;8.00;;
58966;SDS011;44744;51.894;5.080;2022-09-23T06:07:52;13.80;;;8.80;;
58966;SDS011;44744;51.894;5.080;2022-09-23T06:08:52;8.30;;;7.30;;
58966;SDS011;44744;51.894;5.080;2022-09-23T06:09:53;17.50;;;8.00;;
58966;SDS011;44744;51.894;5.080;2022-09-23T06:10:53;10.90;;;7.60;;
58966;SDS011;44744;51.894;5.080;2022-09-23T06:11:53;10.30;;;7.90;;
58966;SDS011;44744;51.894;5.080;2022-09-23T06:12:53;10.40;;;7.60;;
58966;SDS011;44744;51.894;5.080;2022-09-23T06:13:54;10.20;;;7.60;;
58966;SDS011;44744;51.894;5.080;2022-09-23T06:15:56;10.10;;;7.30;;
58966;SDS011;44744;51.894;5.080;2022-09-23T06:16:57;9.90;;;7.60;;
58966;SDS011;44744;51.894;5.080;2022-09-23T06:17:57;10.60;;;7.00;;
58966;SDS011;44744;51.894;5.080;2022-09-23T06:18:58;12.70;;;7.50;;
58966;SDS011;44744;51.894;5.080;2022-09-23T06:19:59;9.80;;;7.00;;
58966;SDS011;44744;51.894;5.080;2022-09-23T06:21:02;10.00;;;7.50;;
58966;SDS011;44744;51.894;5.080;2022-09-23T06:22:07;11.60;;;7.60;;
58966;SDS011;44744;51.894;5.080;2022-09-23T06:23:09;9.30;;;7.30;;
58966;SDS011;44744;51.894;5.080;2022-09-23T06:25:10;11.80;;;7.50;;
58966;SDS011;44744;51.894;5.080;2022-09-23T06:26:12;11.10;;;7.20;;
58966;SDS011;44744;51.894;5.080;2022-09-23T06:27:14;9.30;;;7.70;;
58966;SDS011;44744;51.894;5.080;2022-09-23T06:28:14;12.60;;;7.80;;
58966;SDS011;44744;51.894;5.080;2022-09-23T06:29:14;9.80;;;7.70;;
58966;SDS011;44744;51.894;5.080;2022-09-23T06:30:15;14.60;;;8.10;;
58966;SDS011;44744;51.894;5.080;2022-09-23T06:31:15;9.50;;;7.50;;
58966;SDS011;44744;51.894;5.080;2022-09-23T06:32:18;15.90;;;7.00;;
58966;SDS011;44744;51.894;5.080;2022-09-23T06:33:18;11.90;;;7.10;;
58966;SDS011;44744;51.894;5.080;2022-09-23T06:34:18;10.60;;;7.60;;
58966;SDS011;44744;51.894;5.080;2022-09-23T06:35:19;12.60;;;7.40;;
58966;SDS011;44744;51.894;5.080;2022-09-23T06:36:21;12.40;;;7.30;;
58966;SDS011;44744;51.894;5.080;2022-09-23T06:37:22;10.40;;;8.10;;
58966;SDS011;44744;51.894;5.080;2022-09-23T06:38:22;9.80;;;7.50;;
58966;SDS011;44744;51.894;5.080;2022-09-23T06:39:24;13.40;;;7.50;;
58966;SDS011;44744;51.894;5.080;2022-09-23T06:40:24;10.60;;;7.00;;
58966;SDS011;44744;51.894;5.080;2022-09-23T06:41:25;10.50;;;8.20;;
58966;SDS011;44744;51.894;5.080;2022-09-23T06:42:25;10.70;;;7.40;;
58966;SDS011;44744;51.894;5.080;2022-09-23T06:43:25;9.00;;;6.80;;
58966;SDS011;44744;51.894;5.080;2022-09-23T06:44:29;13.10;;;7.70;;
58966;SDS011;44744;51.894;5.080;2022-09-23T06:45:30;10.90;;;6.80;;
58966;SDS011;44744;51.894;5.080;2022-09-23T06:46:30;10.90;;;7.70;;
58966;SDS011;44744;51.894;5.080;2022-09-23T06:47:30;10.80;;;7.70;;
58966;SDS011;44744;51.894;5.080;2022-09-23T06:48:31;9.10;;;7.00;;
58966;SDS011;44744;51.894;5.080;2022-09-23T06:49:32;9.90;;;7.50;;
58966;SDS011;44744;51.894;5.080;2022-09-23T06:50:32;12.10;;;7.80;;
58966;SDS011;44744;51.894;5.080;2022-09-23T06:51:32;10.00;;;7.00;;
58966;SDS011;44744;51.894;5.080;2022-09-23T06:52:33;10.20;;;7.40;;
58966;SDS011;44744;51.894;5.080;2022-09-23T06:53:33;11.10;;;7.90;;
58966;SDS011;44744;51.894;5.080;2022-09-23T06:54:33;9.50;;;7.60;;
58966;SDS011;44744;51.894;5.080;2022-09-23T06:55:34;8.70;;;6.70;;
58966;SDS011;44744;51.894;5.080;2022-09-23T06:56:34;14.20;;;7.80;;
58966;SDS011;44744;51.894;5.080;2022-09-23T06:57:35;9.90;;;7.10;;
58966;SDS011;44744;51.894;5.080;2022-09-23T06:58:35;13.00;;;7.70;;
58966;SDS011;44744;51.894;5.080;2022-09-23T06:59:36;11.20;;;7.40;;
58966;SDS011;44744;51.894;5.080;2022-09-23T07:00:36;9.70;;;7.90;;
58966;SDS011;44744;51.894;5.080;2022-09-23T07:01:37;14.00;;;8.40;;
58966;SDS011;44744;51.894;5.080;2022-09-23T07:02:39;10.50;;;7.90;;
58966;SDS011;44744;51.894;5.080;2022-09-23T07:03:40;9.10;;;7.60;;
58966;SDS011;44744;51.894;5.080;2022-09-23T07:04:40;12.80;;;7.80;;
58966;SDS011;44744;51.894;5.080;2022-09-23T07:05:41;9.70;;;7.20;;